< < Back
Terminal Aerodrome Forecast


Current Version              Previous Versions:   1  2  3  4  5  6  7  8  9  

Terminal Aerodrome Forecast

240
FTUS44 KBMX 292300
TAFANB
TAF
KANB 292337Z 3000/3024 22007KT P6SM SCT050 BKN100
     FM300300 29009KT P6SM OVC040
     FM300500 33012G20KT P6SM OVC025
     FM300900 34010KT P6SM BKN035
     FM301400 36012KT P6SM SCT025 BKN250=

Latest METAR

464
SAUS70 KWBC 301100 RRE
MTRANB
METAR KANB 301053Z AUTO 35009G16KT 10SM CLR 05/M03 A3029 RMK AO2 SLP261
T00501028


USA.gov is the U.S. government's official web portal to all federal, state and local government web resources and services.